sensor_id;sensor_type;location;lat;lon;timestamp;temperature;humidity
70851;DHT22;58475;49.662;9.636;2022-11-15T00:00:33;5.83;98.99
70851;DHT22;58475;49.662;9.636;2022-11-15T00:03:19;5.86;98.92
70851;DHT22;58475;49.662;9.636;2022-11-15T00:06:04;5.93;98.87
70851;DHT22;58475;49.662;9.636;2022-11-15T00:08:48;5.98;98.86
70851;DHT22;58475;49.662;9.636;2022-11-15T00:11:32;5.95;98.74
70851;DHT22;58475;49.662;9.636;2022-11-15T00:14:16;5.92;98.68
70851;DHT22;58475;49.662;9.636;2022-11-15T00:17:00;5.95;98.61
70851;DHT22;58475;49.662;9.636;2022-11-15T00:19:43;5.91;98.72
70851;DHT22;58475;49.662;9.636;2022-11-15T00:22:34;5.89;98.47
70851;DHT22;58475;49.662;9.636;2022-11-15T00:25:18;5.74;98.26
70851;DHT22;58475;49.662;9.636;2022-11-15T00:28:02;5.62;98.29
70851;DHT22;58475;49.662;9.636;2022-11-15T00:30:46;5.62;98.80
70851;DHT22;58475;49.662;9.636;2022-11-15T00:33:30;5.52;98.50
70851;DHT22;58475;49.662;9.636;2022-11-15T00:36:14;5.54;99.33
70851;DHT22;58475;49.662;9.636;2022-11-15T00:38:58;5.52;99.49
70851;DHT22;58475;49.662;9.636;2022-11-15T00:41:43;5.55;99.29
70851;DHT22;58475;49.662;9.636;2022-11-15T00:44:26;5.51;99.15
70851;DHT22;58475;49.662;9.636;2022-11-15T00:47:10;5.50;98.94
70851;DHT22;58475;49.662;9.636;2022-11-15T00:49:54;5.52;99.00
70851;DHT22;58475;49.662;9.636;2022-11-15T00:52:39;5.52;99.28
70851;DHT22;58475;49.662;9.636;2022-11-15T00:55:23;5.48;99.30
70851;DHT22;58475;49.662;9.636;2022-11-15T00:58:07;5.59;99.23
70851;DHT22;58475;49.662;9.636;2022-11-15T01:00:51;5.62;99.18
70851;DHT22;58475;49.662;9.636;2022-11-15T01:03:36;5.69;99.13
70851;DHT22;58475;49.662;9.636;2022-11-15T01:06:21;5.71;99.41
70851;DHT22;58475;49.662;9.636;2022-11-15T01:09:05;5.74;99.03
70851;DHT22;58475;49.662;9.636;2022-11-15T01:11:49;5.71;98.79
70851;DHT22;58475;49.662;9.636;2022-11-15T01:14:33;5.71;98.47
70851;DHT22;58475;49.662;9.636;2022-11-15T01:17:17;5.71;98.52
70851;DHT22;58475;49.662;9.636;2022-11-15T01:20:01;5.64;98.83
70851;DHT22;58475;49.662;9.636;2022-11-15T01:22:44;5.64;98.81
70851;DHT22;58475;49.662;9.636;2022-11-15T01:25:28;5.74;98.78
70851;DHT22;58475;49.662;9.636;2022-11-15T01:28:12;5.72;98.51
70851;DHT22;58475;49.662;9.636;2022-11-15T01:31:01;5.72;98.90
70851;DHT22;58475;49.662;9.636;2022-11-15T01:33:46;5.62;99.42
70851;DHT22;58475;49.662;9.636;2022-11-15T01:36:30;5.66;99.36
70851;DHT22;58475;49.662;9.636;2022-11-15T01:39:14;5.66;99.32
70851;DHT22;58475;49.662;9.636;2022-11-15T01:41:59;5.69;99.24
70851;DHT22;58475;49.662;9.636;2022-11-15T01:44:47;5.72;99.06
70851;DHT22;58475;49.662;9.636;2022-11-15T01:47:38;5.66;99.34
70851;DHT22;58475;49.662;9.636;2022-11-15T01:50:27;5.71;99.15
70851;DHT22;58475;49.662;9.636;2022-11-15T01:53:13;5.64;98.73
70851;DHT22;58475;49.662;9.636;2022-11-15T01:55:58;5.55;98.69
70851;DHT22;58475;49.662;9.636;2022-11-15T01:58:45;5.56;99.09
70851;DHT22;58475;49.662;9.636;2022-11-15T02:01:31;5.62;98.97
70851;DHT22;58475;49.662;9.636;2022-11-15T02:04:25;5.61;98.96
70851;DHT22;58475;49.662;9.636;2022-11-15T02:07:13;5.54;98.78
70851;DHT22;58475;49.662;9.636;2022-11-15T02:10:02;5.44;98.79
70851;DHT22;58475;49.662;9.636;2022-11-15T02:12:47;5.35;98.84
70851;DHT22;58475;49.662;9.636;2022-11-15T02:15:42;5.34;99.16
70851;DHT22;58475;49.662;9.636;2022-11-15T02:18:32;5.19;98.75
70851;DHT22;58475;49.662;9.636;2022-11-15T02:30:13;4.79;98.54
70851;DHT22;58475;49.662;9.636;2022-11-15T02:33:06;4.73;99.62
70851;DHT22;58475;49.662;9.636;2022-11-15T02:35:59;4.66;98.96
70851;DHT22;58475;49.662;9.636;2022-11-15T02:38:59;4.52;98.37
70851;DHT22;58475;49.662;9.636;2022-11-15T02:42:01;4.48;98.27
70851;DHT22;58475;49.662;9.636;2022-11-15T02:44:46;4.46;98.44
70851;DHT22;58475;49.662;9.636;2022-11-15T02:47:34;4.44;98.46
70851;DHT22;58475;49.662;9.636;2022-11-15T02:50:21;4.38;99.24
70851;DHT22;58475;49.662;9.636;2022-11-15T02:53:07;4.44;99.69
70851;DHT22;58475;49.662;9.636;2022-11-15T02:55:53;4.38;99.56
70851;DHT22;58475;49.662;9.636;2022-11-15T02:58:55;4.41;99.42
70851;DHT22;58475;49.662;9.636;2022-11-15T03:07:32;4.30;98.89
70851;DHT22;58475;49.662;9.636;2022-11-15T03:10:29;4.21;98.61
70851;DHT22;58475;49.662;9.636;2022-11-15T03:13:26;4.07;98.31
70851;DHT22;58475;49.662;9.636;2022-11-15T03:22:25;3.91;98.72
70851;DHT22;58475;49.662;9.636;2022-11-15T03:25:17;4.05;99.12
70851;DHT22;58475;49.662;9.636;2022-11-15T03:28:03;4.17;99.33
70851;DHT22;58475;49.662;9.636;2022-11-15T03:30:49;4.30;99.31
70851;DHT22;58475;49.662;9.636;2022-11-15T03:33:34;4.46;99.26
70851;DHT22;58475;49.662;9.636;2022-11-15T03:36:20;4.54;99.13
70851;DHT22;58475;49.662;9.636;2022-11-15T03:39:07;4.56;98.68
70851;DHT22;58475;49.662;9.636;2022-11-15T03:48:30;4.17;98.55
70851;DHT22;58475;49.662;9.636;2022-11-15T03:51:17;4.11;98.84
70851;DHT22;58475;49.662;9.636;2022-11-15T03:54:05;4.04;98.92
70851;DHT22;58475;49.662;9.636;2022-11-15T03:56:50;3.90;99.31
70851;DHT22;58475;49.662;9.636;2022-11-15T03:59:33;4.00;99.39
70851;DHT22;58475;49.662;9.636;2022-11-15T04:02:17;4.01;99.10
70851;DHT22;58475;49.662;9.636;2022-11-15T04:05:01;3.98;99.50
70851;DHT22;58475;49.662;9.636;2022-11-15T04:07:46;3.95;98.84
70851;DHT22;58475;49.662;9.636;2022-11-15T04:10:30;3.83;98.30
70851;DHT22;58475;49.662;9.636;2022-11-15T04:13:14;3.70;98.48
70851;DHT22;58475;49.662;9.636;2022-11-15T04:15:58;3.72;98.82
70851;DHT22;58475;49.662;9.636;2022-11-15T04:18:43;3.70;99.15
70851;DHT22;58475;49.662;9.636;2022-11-15T04:21:26;3.64;99.17
70851;DHT22;58475;49.662;9.636;2022-11-15T04:24:29;3.72;98.70
70851;DHT22;58475;49.662;9.636;2022-11-15T04:27:17;3.59;98.50
70851;DHT22;58475;49.662;9.636;2022-11-15T04:30:01;3.56;99.00
70851;DHT22;58475;49.662;9.636;2022-11-15T04:32:44;3.59;99.63
70851;DHT22;58475;49.662;9.636;2022-11-15T04:35:29;3.62;99.07
70851;DHT22;58475;49.662;9.636;2022-11-15T04:38:13;3.56;98.76
70851;DHT22;58475;49.662;9.636;2022-11-15T04:40:57;3.49;99.30
70851;DHT22;58475;49.662;9.636;2022-11-15T04:43:41;3.46;99.61
70851;DHT22;58475;49.662;9.636;2022-11-15T04:46:25;3.60;99.98
70851;DHT22;58475;49.662;9.636;2022-11-15T04:49:09;3.55;99.71
70851;DHT22;58475;49.662;9.636;2022-11-15T04:51:53;3.51;99.30
70851;DHT22;58475;49.662;9.636;2022-11-15T04:54:37;3.51;99.25
70851;DHT22;58475;49.662;9.636;2022-11-15T04:57:21;3.48;98.85
70851;DHT22;58475;49.662;9.636;2022-11-15T05:00:07;3.55;99.12
70851;DHT22;58475;49.662;9.636;2022-11-15T05:02:52;3.42;98.95
70851;DHT22;58475;49.662;9.636;2022-11-15T05:05:55;3.46;99.61
70851;DHT22;58475;49.662;9.636;2022-11-15T05:08:39;3.40;99.43
70851;DHT22;58475;49.662;9.636;2022-11-15T05:11:23;3.46;99.50
70851;DHT22;58475;49.662;9.636;2022-11-15T05:14:08;3.40;98.72
70851;DHT22;58475;49.662;9.636;2022-11-15T05:16:52;3.49;98.98
70851;DHT22;58475;49.662;9.636;2022-11-15T05:19:36;3.36;98.96
70851;DHT22;58475;49.662;9.636;2022-11-15T05:22:20;3.32;98.93
70851;DHT22;58475;49.662;9.636;2022-11-15T05:25:05;3.28;99.15
70851;DHT22;58475;49.662;9.636;2022-11-15T05:27:49;3.39;99.08
70851;DHT22;58475;49.662;9.636;2022-11-15T05:30:33;3.43;98.89
70851;DHT22;58475;49.662;9.636;2022-11-15T05:33:17;3.45;98.99
70851;DHT22;58475;49.662;9.636;2022-11-15T05:36:09;3.46;98.92
70851;DHT22;58475;49.662;9.636;2022-11-15T05:38:56;3.59;98.89
70851;DHT22;58475;49.662;9.636;2022-11-15T05:41:52;3.48;98.76
70851;DHT22;58475;49.662;9.636;2022-11-15T05:44:42;3.43;98.62
70851;DHT22;58475;49.662;9.636;2022-11-15T05:47:29;3.48;99.09
70851;DHT22;58475;49.662;9.636;2022-11-15T05:50:16;3.53;99.16
70851;DHT22;58475;49.662;9.636;2022-11-15T05:53:01;3.70;98.97
70851;DHT22;58475;49.662;9.636;2022-11-15T05:55:46;3.56;98.73
70851;DHT22;58475;49.662;9.636;2022-11-15T05:58:34;3.59;98.93
70851;DHT22;58475;49.662;9.636;2022-11-15T06:01:18;3.60;98.92
70851;DHT22;58475;49.662;9.636;2022-11-15T06:04:02;3.60;98.63
70851;DHT22;58475;49.662;9.636;2022-11-15T06:06:46;3.60;99.00
70851;DHT22;58475;49.662;9.636;2022-11-15T06:09:30;3.56;99.18
70851;DHT22;58475;49.662;9.636;2022-11-15T06:12:14;3.60;99.23
70851;DHT22;58475;49.662;9.636;2022-11-15T06:14:58;3.67;99.44
70851;DHT22;58475;49.662;9.636;2022-11-15T06:17:42;3.74;99.69
70851;DHT22;58475;49.662;9.636;2022-11-15T06:20:29;3.87;99.36
70851;DHT22;58475;49.662;9.636;2022-11-15T06:23:13;3.90;99.16
70851;DHT22;58475;49.662;9.636;2022-11-15T06:25:58;3.91;99.57
70851;DHT22;58475;49.662;9.636;2022-11-15T06:28:42;4.01;99.34
70851;DHT22;58475;49.662;9.636;2022-11-15T06:31:26;3.98;99.12
70851;DHT22;58475;49.662;9.636;2022-11-15T06:34:10;4.10;99.33
70851;DHT22;58475;49.662;9.636;2022-11-15T06:36:54;4.18;98.77
70851;DHT22;58475;49.662;9.636;2022-11-15T06:39:38;4.18;99.02
70851;DHT22;58475;49.662;9.636;2022-11-15T06:42:22;4.24;99.17
70851;DHT22;58475;49.662;9.636;2022-11-15T06:45:07;4.30;98.84
70851;DHT22;58475;49.662;9.636;2022-11-15T06:47:54;4.30;98.67
70851;DHT22;58475;49.662;9.636;2022-11-15T06:50:38;4.18;98.50
70851;DHT22;58475;49.662;9.636;2022-11-15T06:53:24;4.14;98.78
70851;DHT22;58475;49.662;9.636;2022-11-15T06:56:08;4.15;99.04
70851;DHT22;58475;49.662;9.636;2022-11-15T06:58:52;4.14;99.17
70851;DHT22;58475;49.662;9.636;2022-11-15T07:01:37;4.24;99.36
70851;DHT22;58475;49.662;9.636;2022-11-15T07:04:21;4.41;98.96
70851;DHT22;58475;49.662;9.636;2022-11-15T07:07:05;4.54;98.63
70851;DHT22;58475;49.662;9.636;2022-11-15T07:09:49;4.45;98.76
70851;DHT22;58475;49.662;9.636;2022-11-15T07:12:34;4.63;98.84
70851;DHT22;58475;49.662;9.636;2022-11-15T07:15:20;4.59;98.64
70851;DHT22;58475;49.662;9.636;2022-11-15T07:18:04;4.77;98.68
70851;DHT22;58475;49.662;9.636;2022-11-15T07:20:48;4.85;98.20
70851;DHT22;58475;49.662;9.636;2022-11-15T07:23:33;4.82;98.10
70851;DHT22;58475;49.662;9.636;2022-11-15T07:26:19;4.97;97.65
70851;DHT22;58475;49.662;9.636;2022-11-15T07:29:03;4.76;97.82
70851;DHT22;58475;49.662;9.636;2022-11-15T07:31:49;4.72;98.03
70851;DHT22;58475;49.662;9.636;2022-11-15T07:34:34;4.69;98.26
70851;DHT22;58475;49.662;9.636;2022-11-15T07:37:18;4.71;98.34
70851;DHT22;58475;49.662;9.636;2022-11-15T07:40:03;4.72;98.45
70851;DHT22;58475;49.662;9.636;2022-11-15T07:42:47;4.87;98.72
70851;DHT22;58475;49.662;9.636;2022-11-15T07:45:44;5.01;98.04
70851;DHT22;58475;49.662;9.636;2022-11-15T07:48:30;5.16;98.20
70851;DHT22;58475;49.662;9.636;2022-11-15T07:51:15;5.27;97.74
70851;DHT22;58475;49.662;9.636;2022-11-15T07:54:00;5.43;97.42
70851;DHT22;58475;49.662;9.636;2022-11-15T07:56:43;5.50;97.22
70851;DHT22;58475;49.662;9.636;2022-11-15T07:59:27;5.50;97.15
70851;DHT22;58475;49.662;9.636;2022-11-15T08:02:11;5.83;96.22
70851;DHT22;58475;49.662;9.636;2022-11-15T08:04:56;6.24;94.60
70851;DHT22;58475;49.662;9.636;2022-11-15T08:07:40;6.85;92.94
70851;DHT22;58475;49.662;9.636;2022-11-15T08:10:25;7.19;91.44
70851;DHT22;58475;49.662;9.636;2022-11-15T08:13:11;7.26;90.76
70851;DHT22;58475;49.662;9.636;2022-11-15T08:16:02;7.42;90.97
70851;DHT22;58475;49.662;9.636;2022-11-15T08:18:46;7.74;89.60
70851;DHT22;58475;49.662;9.636;2022-11-15T08:21:30;8.31;88.21
70851;DHT22;58475;49.662;9.636;2022-11-15T08:24:15;8.57;86.42
70851;DHT22;58475;49.662;9.636;2022-11-15T08:26:59;8.96;85.79
70851;DHT22;58475;49.662;9.636;2022-11-15T08:29:44;8.97;85.04
70851;DHT22;58475;49.662;9.636;2022-11-15T08:32:31;9.44;84.26
70851;DHT22;58475;49.662;9.636;2022-11-15T08:35:15;9.51;83.83
70851;DHT22;58475;49.662;9.636;2022-11-15T08:37:59;9.71;83.93
70851;DHT22;58475;49.662;9.636;2022-11-15T08:40:43;9.75;83.59
70851;DHT22;58475;49.662;9.636;2022-11-15T08:43:27;9.03;84.90
70851;DHT22;58475;49.662;9.636;2022-11-15T08:46:12;8.90;86.16
70851;DHT22;58475;49.662;9.636;2022-11-15T08:48:57;9.03;85.38
70851;DHT22;58475;49.662;9.636;2022-11-15T08:51:41;8.94;86.43
70851;DHT22;58475;49.662;9.636;2022-11-15T08:54:25;9.10;86.91
70851;DHT22;58475;49.662;9.636;2022-11-15T08:57:09;9.45;85.48
70851;DHT22;58475;49.662;9.636;2022-11-15T08:59:53;9.45;85.44
70851;DHT22;58475;49.662;9.636;2022-11-15T09:02:38;9.63;84.65
70851;DHT22;58475;49.662;9.636;2022-11-15T09:05:22;9.14;86.40
70851;DHT22;58475;49.662;9.636;2022-11-15T09:08:06;9.94;85.02
70851;DHT22;58475;49.662;9.636;2022-11-15T09:10:51;9.90;84.94
70851;DHT22;58475;49.662;9.636;2022-11-15T09:13:36;10.37;84.31
70851;DHT22;58475;49.662;9.636;2022-11-15T09:16:20;10.29;84.26
70851;DHT22;58475;49.662;9.636;2022-11-15T09:19:04;11.02;83.47
70851;DHT22;58475;49.662;9.636;2022-11-15T09:21:48;11.05;82.70
70851;DHT22;58475;49.662;9.636;2022-11-15T09:24:32;10.61;83.52
70851;DHT22;58475;49.662;9.636;2022-11-15T09:27:16;10.17;84.96
70851;DHT22;58475;49.662;9.636;2022-11-15T09:30:00;10.38;85.36
70851;DHT22;58475;49.662;9.636;2022-11-15T09:32:44;10.27;85.99
70851;DHT22;58475;49.662;9.636;2022-11-15T09:35:28;10.07;86.64
70851;DHT22;58475;49.662;9.636;2022-11-15T09:38:12;10.06;86.58
70851;DHT22;58475;49.662;9.636;2022-11-15T09:44:13;9.89;87.06
70851;DHT22;58475;49.662;9.636;2022-11-15T09:50:39;9.94;88.01
70851;DHT22;58475;49.662;9.636;2022-11-15T09:53:11;9.94;88.63
70851;DHT22;58475;49.662;9.636;2022-11-15T09:55:58;10.18;88.25
70851;DHT22;58475;49.662;9.636;2022-11-15T10:01:44;10.38;87.75
70851;DHT22;58475;49.662;9.636;2022-11-15T10:04:10;10.43;86.91
70851;DHT22;58475;49.662;9.636;2022-11-15T10:06:43;10.23;87.43
70851;DHT22;58475;49.662;9.636;2022-11-15T10:09:21;10.21;87.99
70851;DHT22;58475;49.662;9.636;2022-11-15T10:11:49;10.33;87.73
70851;DHT22;58475;49.662;9.636;2022-11-15T10:14:20;10.37;87.02
70851;DHT22;58475;49.662;9.636;2022-11-15T10:17:05;10.55;87.59
70851;DHT22;58475;49.662;9.636;2022-11-15T10:24:41;10.71;85.93
70851;DHT22;58475;49.662;9.636;2022-11-15T10:27:15;10.55;85.71
70851;DHT22;58475;49.662;9.636;2022-11-15T10:29:49;10.71;86.29
70851;DHT22;58475;49.662;9.636;2022-11-15T10:32:17;10.82;86.42
70851;DHT22;58475;49.662;9.636;2022-11-15T10:34:44;10.89;86.35
70851;DHT22;58475;49.662;9.636;2022-11-15T10:37:09;10.81;85.69
70851;DHT22;58475;49.662;9.636;2022-11-15T10:39:35;10.89;85.64
70851;DHT22;58475;49.662;9.636;2022-11-15T10:42:27;10.89;86.87
70851;DHT22;58475;49.662;9.636;2022-11-15T10:44:53;10.93;86.52
70851;DHT22;58475;49.662;9.636;2022-11-15T10:47:30;10.96;86.18
70851;DHT22;58475;49.662;9.636;2022-11-15T10:52:53;10.88;87.34
70851;DHT22;58475;49.662;9.636;2022-11-15T10:55:24;10.85;86.63
70851;DHT22;58475;49.662;9.636;2022-11-15T10:58:03;11.02;87.37
70851;DHT22;58475;49.662;9.636;2022-11-15T11:00:33;10.89;86.55
70851;DHT22;58475;49.662;9.636;2022-11-15T11:03:00;11.01;86.48
70851;DHT22;58475;49.662;9.636;2022-11-15T11:05:30;10.98;86.45
70851;DHT22;58475;49.662;9.636;2022-11-15T11:08:00;11.05;86.53
70851;DHT22;58475;49.662;9.636;2022-11-15T11:10:27;11.09;87.77
70851;DHT22;58475;49.662;9.636;2022-11-15T11:12:52;11.20;87.00
70851;DHT22;58475;49.662;9.636;2022-11-15T11:15:18;11.34;86.30
70851;DHT22;58475;49.662;9.636;2022-11-15T11:18:07;11.26;85.13
70851;DHT22;58475;49.662;9.636;2022-11-15T11:20:51;11.43;85.46
70851;DHT22;58475;49.662;9.636;2022-11-15T11:23:38;11.46;84.80
70851;DHT22;58475;49.662;9.636;2022-11-15T11:29:00;11.46;85.60
70851;DHT22;58475;49.662;9.636;2022-11-15T11:31:42;11.56;85.73
70851;DHT22;58475;49.662;9.636;2022-11-15T11:37:19;11.61;85.48
70851;DHT22;58475;49.662;9.636;2022-11-15T11:40:02;11.50;86.82
70851;DHT22;58475;49.662;9.636;2022-11-15T11:42:52;11.54;85.79
70851;DHT22;58475;49.662;9.636;2022-11-15T11:48:25;11.54;86.33
70851;DHT22;58475;49.662;9.636;2022-11-15T11:51:05;11.63;85.46
70851;DHT22;58475;49.662;9.636;2022-11-15T11:56:26;11.70;86.19
70851;DHT22;58475;49.662;9.636;2022-11-15T11:58:55;11.67;85.95
70851;DHT22;58475;49.662;9.636;2022-11-15T12:01:28;11.66;87.09
70851;DHT22;58475;49.662;9.636;2022-11-15T12:04:08;11.67;86.87
70851;DHT22;58475;49.662;9.636;2022-11-15T12:06:49;11.63;86.93
70851;DHT22;58475;49.662;9.636;2022-11-15T12:15:18;11.47;87.52
70851;DHT22;58475;49.662;9.636;2022-11-15T12:17:46;11.57;86.59
70851;DHT22;58475;49.662;9.636;2022-11-15T12:20:23;11.63;87.02
70851;DHT22;58475;49.662;9.636;2022-11-15T12:23:12;11.67;87.16
70851;DHT22;58475;49.662;9.636;2022-11-15T12:25:53;11.73;86.86
70851;DHT22;58475;49.662;9.636;2022-11-15T12:28:46;11.97;86.62
70851;DHT22;58475;49.662;9.636;2022-11-15T12:36:46;12.33;85.23
70851;DHT22;58475;49.662;9.636;2022-11-15T12:39:13;12.50;84.91
70851;DHT22;58475;49.662;9.636;2022-11-15T12:41:44;12.60;85.73
70851;DHT22;58475;49.662;9.636;2022-11-15T12:44:13;12.69;85.22
70851;DHT22;58475;49.662;9.636;2022-11-15T12:59:52;12.57;85.89
70851;DHT22;58475;49.662;9.636;2022-11-15T13:02:44;12.53;83.94
70851;DHT22;58475;49.662;9.636;2022-11-15T13:15:37;12.59;83.95
70851;DHT22;58475;49.662;9.636;2022-11-15T13:18:28;12.63;84.08
70851;DHT22;58475;49.662;9.636;2022-11-15T13:20:54;12.66;84.02
70851;DHT22;58475;49.662;9.636;2022-11-15T13:23:21;12.75;84.07
70851;DHT22;58475;49.662;9.636;2022-11-15T13:31:35;12.81;84.23
70851;DHT22;58475;49.662;9.636;2022-11-15T13:36:49;12.73;86.11
70851;DHT22;58475;49.662;9.636;2022-11-15T13:39:31;12.73;86.41
70851;DHT22;58475;49.662;9.636;2022-11-15T13:41:57;12.62;86.90
70851;DHT22;58475;49.662;9.636;2022-11-15T13:44:31;12.59;87.02
70851;DHT22;58475;49.662;9.636;2022-11-15T13:47:06;12.59;87.67
70851;DHT22;58475;49.662;9.636;2022-11-15T13:49:33;12.48;87.99
70851;DHT22;58475;49.662;9.636;2022-11-15T13:52:01;12.66;87.19
70851;DHT22;58475;49.662;9.636;2022-11-15T13:54:47;12.49;88.04
70851;DHT22;58475;49.662;9.636;2022-11-15T13:57:23;12.43;88.27
70851;DHT22;58475;49.662;9.636;2022-11-15T13:59:52;12.49;87.95
70851;DHT22;58475;49.662;9.636;2022-11-15T14:02:26;12.67;87.14
70851;DHT22;58475;49.662;9.636;2022-11-15T14:05:19;12.53;87.08
70851;DHT22;58475;49.662;9.636;2022-11-15T14:07:57;12.36;88.30
70851;DHT22;58475;49.662;9.636;2022-11-15T14:10:32;12.46;87.88
70851;DHT22;58475;49.662;9.636;2022-11-15T14:12:58;12.45;88.52
70851;DHT22;58475;49.662;9.636;2022-11-15T14:15:26;12.38;88.54
70851;DHT22;58475;49.662;9.636;2022-11-15T14:17:52;12.32;88.66
70851;DHT22;58475;49.662;9.636;2022-11-15T14:20:36;12.25;89.32
70851;DHT22;58475;49.662;9.636;2022-11-15T14:25:34;12.22;88.75
70851;DHT22;58475;49.662;9.636;2022-11-15T14:30:35;12.05;89.40
70851;DHT22;58475;49.662;9.636;2022-11-15T14:33:01;12.06;89.74
70851;DHT22;58475;49.662;9.636;2022-11-15T14:35:26;12.06;88.72
70851;DHT22;58475;49.662;9.636;2022-11-15T14:37:52;11.98;88.90
70851;DHT22;58475;49.662;9.636;2022-11-15T14:40:19;11.94;90.04
70851;DHT22;58475;49.662;9.636;2022-11-15T14:42:47;11.85;89.91
70851;DHT22;58475;49.662;9.636;2022-11-15T14:45:21;11.92;89.61
70851;DHT22;58475;49.662;9.636;2022-11-15T14:47:47;11.85;90.35
70851;DHT22;58475;49.662;9.636;2022-11-15T14:50:18;11.67;91.85
70851;DHT22;58475;49.662;9.636;2022-11-15T14:52:45;11.66;91.72
70851;DHT22;58475;49.662;9.636;2022-11-15T14:57:48;11.54;92.09
70851;DHT22;58475;49.662;9.636;2022-11-15T15:00:15;11.57;92.21
70851;DHT22;58475;49.662;9.636;2022-11-15T15:02:42;11.49;92.94
70851;DHT22;58475;49.662;9.636;2022-11-15T15:05:26;11.37;93.18
70851;DHT22;58475;49.662;9.636;2022-11-15T15:07:51;11.27;93.48
70851;DHT22;58475;49.662;9.636;2022-11-15T15:10:18;11.32;93.06
70851;DHT22;58475;49.662;9.636;2022-11-15T15:12:44;11.34;92.82
70851;DHT22;58475;49.662;9.636;2022-11-15T15:15:18;11.26;93.25
70851;DHT22;58475;49.662;9.636;2022-11-15T15:17:45;11.20;93.10
70851;DHT22;58475;49.662;9.636;2022-11-15T15:20:12;11.12;93.92
70851;DHT22;58475;49.662;9.636;2022-11-15T15:22:41;11.18;93.95
70851;DHT22;58475;49.662;9.636;2022-11-15T15:25:34;11.13;93.65
70851;DHT22;58475;49.662;9.636;2022-11-15T15:28:01;11.02;93.76
70851;DHT22;58475;49.662;9.636;2022-11-15T15:30:29;10.96;94.06
70851;DHT22;58475;49.662;9.636;2022-11-15T15:32:55;10.92;93.95
70851;DHT22;58475;49.662;9.636;2022-11-15T15:35:21;10.86;94.26
70851;DHT22;58475;49.662;9.636;2022-11-15T15:37:48;10.93;93.86
70851;DHT22;58475;49.662;9.636;2022-11-15T15:40:19;10.83;93.84
70851;DHT22;58475;49.662;9.636;2022-11-15T15:42:45;10.76;94.01
70851;DHT22;58475;49.662;9.636;2022-11-15T15:45:11;10.62;94.97
70851;DHT22;58475;49.662;9.636;2022-11-15T15:47:37;10.68;94.76
70851;DHT22;58475;49.662;9.636;2022-11-15T15:50:26;10.61;94.98
70851;DHT22;58475;49.662;9.636;2022-11-15T15:52:51;10.60;94.63
70851;DHT22;58475;49.662;9.636;2022-11-15T15:55:17;10.57;94.77
70851;DHT22;58475;49.662;9.636;2022-11-15T15:57:42;10.52;94.96
70851;DHT22;58475;49.662;9.636;2022-11-15T16:00:09;10.47;95.12
70851;DHT22;58475;49.662;9.636;2022-11-15T16:02:39;10.37;95.35
70851;DHT22;58475;49.662;9.636;2022-11-15T16:05:04;10.33;95.58
70851;DHT22;58475;49.662;9.636;2022-11-15T16:07:30;10.25;96.19
70851;DHT22;58475;49.662;9.636;2022-11-15T16:09:56;10.29;96.02
70851;DHT22;58475;49.662;9.636;2022-11-15T16:12:29;10.21;96.27
70851;DHT22;58475;49.662;9.636;2022-11-15T16:14:55;10.14;95.60
70851;DHT22;58475;49.662;9.636;2022-11-15T16:17:23;10.14;95.60
70851;DHT22;58475;49.662;9.636;2022-11-15T16:19:49;10.09;95.87
70851;DHT22;58475;49.662;9.636;2022-11-15T16:22:15;10.06;95.57
70851;DHT22;58475;49.662;9.636;2022-11-15T16:24:40;9.99;96.81
70851;DHT22;58475;49.662;9.636;2022-11-15T16:27:13;10.00;95.70
70851;DHT22;58475;49.662;9.636;2022-11-15T16:29:39;9.86;96.85
70851;DHT22;58475;49.662;9.636;2022-11-15T16:32:04;9.87;96.55
70851;DHT22;58475;49.662;9.636;2022-11-15T16:34:30;9.85;96.67
70851;DHT22;58475;49.662;9.636;2022-11-15T16:36:55;9.76;96.65
70851;DHT22;58475;49.662;9.636;2022-11-15T16:39:21;9.75;96.75
70851;DHT22;58475;49.662;9.636;2022-11-15T16:41:47;9.73;97.20
70851;DHT22;58475;49.662;9.636;2022-11-15T16:44:13;9.73;96.63
70851;DHT22;58475;49.662;9.636;2022-11-15T16:46:41;9.78;96.89
70851;DHT22;58475;49.662;9.636;2022-11-15T16:49:13;9.82;96.80
70851;DHT22;58475;49.662;9.636;2022-11-15T16:51:40;9.75;97.18
70851;DHT22;58475;49.662;9.636;2022-11-15T16:54:06;9.73;96.99
70851;DHT22;58475;49.662;9.636;2022-11-15T16:56:33;9.68;96.65
70851;DHT22;58475;49.662;9.636;2022-11-15T16:59:00;9.65;96.97
70851;DHT22;58475;49.662;9.636;2022-11-15T17:01:33;9.56;97.01
70851;DHT22;58475;49.662;9.636;2022-11-15T17:04:00;9.51;96.92
70851;DHT22;58475;49.662;9.636;2022-11-15T17:06:37;9.48;97.00
70851;DHT22;58475;49.662;9.636;2022-11-15T17:09:03;9.44;97.39
70851;DHT22;58475;49.662;9.636;2022-11-15T17:11:29;9.46;97.46
70851;DHT22;58475;49.662;9.636;2022-11-15T17:13:58;9.52;97.16
70851;DHT22;58475;49.662;9.636;2022-11-15T17:16:24;9.49;97.97
70851;DHT22;58475;49.662;9.636;2022-11-15T17:18:51;9.48;98.06
70851;DHT22;58475;49.662;9.636;2022-11-15T17:21:19;9.48;97.57
70851;DHT22;58475;49.662;9.636;2022-11-15T17:23:45;9.53;97.47
70851;DHT22;58475;49.662;9.636;2022-11-15T17:26:12;9.52;97.64
70851;DHT22;58475;49.662;9.636;2022-11-15T17:28:39;9.48;97.76
70851;DHT22;58475;49.662;9.636;2022-11-15T17:31:09;9.46;98.00
70851;DHT22;58475;49.662;9.636;2022-11-15T17:33:39;9.49;97.68
70851;DHT22;58475;49.662;9.636;2022-11-15T17:36:09;9.49;97.60
70851;DHT22;58475;49.662;9.636;2022-11-15T17:38:37;9.45;97.51
70851;DHT22;58475;49.662;9.636;2022-11-15T17:41:11;9.41;97.79
70851;DHT22;58475;49.662;9.636;2022-11-15T17:43:36;9.42;97.63
70851;DHT22;58475;49.662;9.636;2022-11-15T17:46:28;9.32;97.98
70851;DHT22;58475;49.662;9.636;2022-11-15T17:48:55;9.41;97.58
70851;DHT22;58475;49.662;9.636;2022-11-15T17:51:24;9.44;97.79
70851;DHT22;58475;49.662;9.636;2022-11-15T17:53:50;9.46;97.47
70851;DHT22;58475;49.662;9.636;2022-11-15T17:56:19;9.42;97.87
70851;DHT22;58475;49.662;9.636;2022-11-15T17:58:53;9.38;97.56
70851;DHT22;58475;49.662;9.636;2022-11-15T18:01:23;9.36;97.71
70851;DHT22;58475;49.662;9.636;2022-11-15T18:03:50;9.34;97.61
70851;DHT22;58475;49.662;9.636;2022-11-15T18:06:16;9.25;97.72
70851;DHT22;58475;49.662;9.636;2022-11-15T18:08:44;9.20;97.68
70851;DHT22;58475;49.662;9.636;2022-11-15T18:13:43;9.11;97.92
70851;DHT22;58475;49.662;9.636;2022-11-15T18:16:14;9.10;98.15
70851;DHT22;58475;49.662;9.636;2022-11-15T18:18:40;9.07;98.49
70851;DHT22;58475;49.662;9.636;2022-11-15T18:21:09;9.11;98.27
70851;DHT22;58475;49.662;9.636;2022-11-15T18:23:35;9.10;98.15
70851;DHT22;58475;49.662;9.636;2022-11-15T18:26:02;9.08;98.33
70851;DHT22;58475;49.662;9.636;2022-11-15T18:28:34;9.13;98.01
70851;DHT22;58475;49.662;9.636;2022-11-15T18:31:00;9.10;98.05
70851;DHT22;58475;49.662;9.636;2022-11-15T18:33:27;9.15;98.22
70851;DHT22;58475;49.662;9.636;2022-11-15T18:36:05;9.18;98.01
70851;DHT22;58475;49.662;9.636;2022-11-15T18:38:31;9.14;98.01
70851;DHT22;58475;49.662;9.636;2022-11-15T18:41:08;9.14;98.03
70851;DHT22;58475;49.662;9.636;2022-11-15T18:43:35;9.07;98.12